sensor_id;sensor_type;location;lat;lon;timestamp;temperature;humidity
15543;DHT22;7873;52.230;12.856;2023-09-19T00:00:06;24.70;57.60
15543;DHT22;7873;52.230;12.856;2023-09-19T00:02:35;24.70;57.60
15543;DHT22;7873;52.230;12.856;2023-09-19T00:05:04;24.70;57.60
15543;DHT22;7873;52.230;12.856;2023-09-19T00:07:31;24.70;57.40
15543;DHT22;7873;52.230;12.856;2023-09-19T00:09:58;24.70;57.40
15543;DHT22;7873;52.230;12.856;2023-09-19T00:12:25;24.70;57.70
15543;DHT22;7873;52.230;12.856;2023-09-19T00:14:54;24.70;57.60
15543;DHT22;7873;52.230;12.856;2023-09-19T00:17:22;24.60;57.60
15543;DHT22;7873;52.230;12.856;2023-09-19T00:19:49;24.70;57.60
15543;DHT22;7873;52.230;12.856;2023-09-19T00:22:18;24.70;57.40
15543;DHT22;7873;52.230;12.856;2023-09-19T00:24:45;24.70;57.40
15543;DHT22;7873;52.230;12.856;2023-09-19T00:27:12;24.70;57.30
15543;DHT22;7873;52.230;12.856;2023-09-19T00:29:39;24.70;57.30
15543;DHT22;7873;52.230;12.856;2023-09-19T00:32:08;24.70;57.30
15543;DHT22;7873;52.230;12.856;2023-09-19T00:34:34;24.70;57.30
15543;DHT22;7873;52.230;12.856;2023-09-19T00:37:01;24.70;57.30
15543;DHT22;7873;52.230;12.856;2023-09-19T00:39:29;24.70;57.30
15543;DHT22;7873;52.230;12.856;2023-09-19T00:41:56;24.70;57.30
15543;DHT22;7873;52.230;12.856;2023-09-19T00:44:23;24.70;57.30
15543;DHT22;7873;52.230;12.856;2023-09-19T00:46:50;24.70;57.30
15543;DHT22;7873;52.230;12.856;2023-09-19T00:49:18;24.70;57.60
15543;DHT22;7873;52.230;12.856;2023-09-19T00:51:48;24.70;57.40
15543;DHT22;7873;52.230;12.856;2023-09-19T00:54:15;24.60;57.40
15543;DHT22;7873;52.230;12.856;2023-09-19T00:56:44;24.70;57.40
15543;DHT22;7873;52.230;12.856;2023-09-19T00:59:14;24.70;57.30
15543;DHT22;7873;52.230;12.856;2023-09-19T01:01:41;24.70;57.30
15543;DHT22;7873;52.230;12.856;2023-09-19T01:04:11;24.70;57.20
15543;DHT22;7873;52.230;12.856;2023-09-19T01:06:39;24.70;57.10
15543;DHT22;7873;52.230;12.856;2023-09-19T01:09:06;24.70;57.20
15543;DHT22;7873;52.230;12.856;2023-09-19T01:11:35;24.70;57.20
15543;DHT22;7873;52.230;12.856;2023-09-19T01:14:11;24.70;57.20
15543;DHT22;7873;52.230;12.856;2023-09-19T01:16:45;24.70;57.20
15543;DHT22;7873;52.230;12.856;2023-09-19T01:19:32;24.70;57.20
15543;DHT22;7873;52.230;12.856;2023-09-19T01:22:29;24.70;57.20
15543;DHT22;7873;52.230;12.856;2023-09-19T01:25:11;24.70;57.10
15543;DHT22;7873;52.230;12.856;2023-09-19T01:27:59;24.70;57.10
15543;DHT22;7873;52.230;12.856;2023-09-19T01:30:40;24.70;57.10
15543;DHT22;7873;52.230;12.856;2023-09-19T01:33:09;24.70;57.10
15543;DHT22;7873;52.230;12.856;2023-09-19T01:35:37;24.70;57.10
15543;DHT22;7873;52.230;12.856;2023-09-19T01:38:04;24.70;57.10
15543;DHT22;7873;52.230;12.856;2023-09-19T01:40:32;24.70;57.10
15543;DHT22;7873;52.230;12.856;2023-09-19T01:43:05;24.70;57.10
15543;DHT22;7873;52.230;12.856;2023-09-19T01:45:37;24.70;57.10
15543;DHT22;7873;52.230;12.856;2023-09-19T01:48:19;24.70;57.10
15543;DHT22;7873;52.230;12.856;2023-09-19T01:50:53;24.70;57.10
15543;DHT22;7873;52.230;12.856;2023-09-19T01:53:23;24.60;57.10
15543;DHT22;7873;52.230;12.856;2023-09-19T01:55:53;24.60;57.10
15543;DHT22;7873;52.230;12.856;2023-09-19T01:58:21;24.60;57.10
15543;DHT22;7873;52.230;12.856;2023-09-19T02:00:55;24.60;57.10
15543;DHT22;7873;52.230;12.856;2023-09-19T02:03:26;24.60;57.10
15543;DHT22;7873;52.230;12.856;2023-09-19T02:05:54;24.60;57.10
15543;DHT22;7873;52.230;12.856;2023-09-19T02:08:21;24.60;57.10
15543;DHT22;7873;52.230;12.856;2023-09-19T02:10:50;24.60;57.10
15543;DHT22;7873;52.230;12.856;2023-09-19T02:13:18;24.60;57.10
15543;DHT22;7873;52.230;12.856;2023-09-19T02:15:46;24.60;57.20
15543;DHT22;7873;52.230;12.856;2023-09-19T02:18:14;24.60;57.20
15543;DHT22;7873;52.230;12.856;2023-09-19T02:20:41;24.60;57.20
15543;DHT22;7873;52.230;12.856;2023-09-19T02:23:07;24.60;57.30
15543;DHT22;7873;52.230;12.856;2023-09-19T02:25:35;24.60;57.30
15543;DHT22;7873;52.230;12.856;2023-09-19T02:28:03;24.60;57.30
15543;DHT22;7873;52.230;12.856;2023-09-19T02:30:30;24.60;57.30
15543;DHT22;7873;52.230;12.856;2023-09-19T02:32:57;24.60;57.20
15543;DHT22;7873;52.230;12.856;2023-09-19T02:35:28;24.60;57.10
15543;DHT22;7873;52.230;12.856;2023-09-19T02:37:58;24.60;57.20
15543;DHT22;7873;52.230;12.856;2023-09-19T02:40:24;24.60;57.20
15543;DHT22;7873;52.230;12.856;2023-09-19T02:42:53;24.60;57.10
15543;DHT22;7873;52.230;12.856;2023-09-19T02:45:21;24.60;57.20
15543;DHT22;7873;52.230;12.856;2023-09-19T02:47:47;24.60;57.20
15543;DHT22;7873;52.230;12.856;2023-09-19T02:50:14;24.60;57.10
15543;DHT22;7873;52.230;12.856;2023-09-19T02:52:44;24.60;57.80
15543;DHT22;7873;52.230;12.856;2023-09-19T02:55:12;24.60;57.10
15543;DHT22;7873;52.230;12.856;2023-09-19T02:57:39;24.60;57.10
15543;DHT22;7873;52.230;12.856;2023-09-19T03:00:08;24.60;57.30
15543;DHT22;7873;52.230;12.856;2023-09-19T03:02:37;24.60;57.40
15543;DHT22;7873;52.230;12.856;2023-09-19T03:05:06;24.60;57.60
15543;DHT22;7873;52.230;12.856;2023-09-19T03:07:36;24.60;57.70
15543;DHT22;7873;52.230;12.856;2023-09-19T03:10:05;24.60;57.60
15543;DHT22;7873;52.230;12.856;2023-09-19T03:12:33;24.60;57.70
15543;DHT22;7873;52.230;12.856;2023-09-19T03:15:00;24.60;57.70
15543;DHT22;7873;52.230;12.856;2023-09-19T03:17:27;24.60;57.70
15543;DHT22;7873;52.230;12.856;2023-09-19T03:19:53;24.60;57.70
15543;DHT22;7873;52.230;12.856;2023-09-19T03:22:20;24.60;57.70
15543;DHT22;7873;52.230;12.856;2023-09-19T03:24:47;24.70;57.60
15543;DHT22;7873;52.230;12.856;2023-09-19T03:27:15;24.60;57.60
15543;DHT22;7873;52.230;12.856;2023-09-19T03:29:41;24.60;57.40
15543;DHT22;7873;52.230;12.856;2023-09-19T03:32:08;24.60;57.20
15543;DHT22;7873;52.230;12.856;2023-09-19T03:34:36;24.60;57.60
15543;DHT22;7873;52.230;12.856;2023-09-19T03:37:03;24.60;57.70
15543;DHT22;7873;52.230;12.856;2023-09-19T03:39:30;24.60;57.60
15543;DHT22;7873;52.230;12.856;2023-09-19T03:41:57;24.60;57.40
15543;DHT22;7873;52.230;12.856;2023-09-19T03:44:25;24.60;57.30
15543;DHT22;7873;52.230;12.856;2023-09-19T03:46:51;24.60;57.30
15543;DHT22;7873;52.230;12.856;2023-09-19T03:49:20;24.60;57.30
15543;DHT22;7873;52.230;12.856;2023-09-19T03:51:47;24.50;57.40
15543;DHT22;7873;52.230;12.856;2023-09-19T03:54:14;24.50;57.50
15543;DHT22;7873;52.230;12.856;2023-09-19T03:56:42;24.50;57.40
15543;DHT22;7873;52.230;12.856;2023-09-19T03:59:09;24.40;57.50
15543;DHT22;7873;52.230;12.856;2023-09-19T04:01:37;24.50;57.40
15543;DHT22;7873;52.230;12.856;2023-09-19T04:04:04;24.40;57.50
15543;DHT22;7873;52.230;12.856;2023-09-19T04:06:34;24.40;57.50
15543;DHT22;7873;52.230;12.856;2023-09-19T04:09:01;24.50;57.40
15543;DHT22;7873;52.230;12.856;2023-09-19T04:11:29;24.50;57.20
15543;DHT22;7873;52.230;12.856;2023-09-19T04:13:56;24.60;57.00
15543;DHT22;7873;52.230;12.856;2023-09-19T04:16:22;24.60;57.20
15543;DHT22;7873;52.230;12.856;2023-09-19T04:18:50;24.60;57.10
15543;DHT22;7873;52.230;12.856;2023-09-19T04:21:17;24.60;57.00
15543;DHT22;7873;52.230;12.856;2023-09-19T04:23:45;24.70;56.90
15543;DHT22;7873;52.230;12.856;2023-09-19T04:26:11;24.60;57.00
15543;DHT22;7873;52.230;12.856;2023-09-19T04:28:38;24.60;56.80
15543;DHT22;7873;52.230;12.856;2023-09-19T04:31:05;24.70;56.90
15543;DHT22;7873;52.230;12.856;2023-09-19T04:33:33;24.60;56.10
15543;DHT22;7873;52.230;12.856;2023-09-19T04:36:02;24.50;56.40
15543;DHT22;7873;52.230;12.856;2023-09-19T04:38:30;24.50;55.60
15543;DHT22;7873;52.230;12.856;2023-09-19T04:40:57;24.50;54.60
15543;DHT22;7873;52.230;12.856;2023-09-19T04:43:24;24.50;55.00
15543;DHT22;7873;52.230;12.856;2023-09-19T04:45:51;24.50;54.60
15543;DHT22;7873;52.230;12.856;2023-09-19T04:48:21;24.60;54.30
15543;DHT22;7873;52.230;12.856;2023-09-19T04:50:49;24.60;53.80
15543;DHT22;7873;52.230;12.856;2023-09-19T04:53:18;24.50;54.10
15543;DHT22;7873;52.230;12.856;2023-09-19T04:55:49;24.40;54.50
15543;DHT22;7873;52.230;12.856;2023-09-19T04:58:17;24.50;54.20
15543;DHT22;7873;52.230;12.856;2023-09-19T05:00:44;24.50;54.10
15543;DHT22;7873;52.230;12.856;2023-09-19T05:03:11;24.50;53.80
15543;DHT22;7873;52.230;12.856;2023-09-19T05:05:38;24.50;53.20
15543;DHT22;7873;52.230;12.856;2023-09-19T05:08:06;24.50;53.20
15543;DHT22;7873;52.230;12.856;2023-09-19T05:10:36;24.40;53.40
15543;DHT22;7873;52.230;12.856;2023-09-19T05:13:03;24.40;53.80
15543;DHT22;7873;52.230;12.856;2023-09-19T05:15:30;24.40;54.20
15543;DHT22;7873;52.230;12.856;2023-09-19T05:17:57;24.50;54.20
15543;DHT22;7873;52.230;12.856;2023-09-19T05:20:24;24.50;54.30
15543;DHT22;7873;52.230;12.856;2023-09-19T05:22:58;24.40;54.30
15543;DHT22;7873;52.230;12.856;2023-09-19T05:25:27;24.40;54.90
15543;DHT22;7873;52.230;12.856;2023-09-19T05:27:56;24.40;54.50
15543;DHT22;7873;52.230;12.856;2023-09-19T05:30:24;24.50;54.30
15543;DHT22;7873;52.230;12.856;2023-09-19T05:32:52;24.40;54.20
15543;DHT22;7873;52.230;12.856;2023-09-19T05:35:19;24.40;54.30
15543;DHT22;7873;52.230;12.856;2023-09-19T05:37:47;24.40;54.30
15543;DHT22;7873;52.230;12.856;2023-09-19T05:40:16;24.50;54.30
15543;DHT22;7873;52.230;12.856;2023-09-19T05:42:43;24.50;54.30
15543;DHT22;7873;52.230;12.856;2023-09-19T05:45:11;24.50;54.40
15543;DHT22;7873;52.230;12.856;2023-09-19T05:47:38;24.40;54.50
15543;DHT22;7873;52.230;12.856;2023-09-19T05:50:06;24.40;54.50
15543;DHT22;7873;52.230;12.856;2023-09-19T05:52:34;24.40;54.40
15543;DHT22;7873;52.230;12.856;2023-09-19T05:55:02;24.50;54.30
15543;DHT22;7873;52.230;12.856;2023-09-19T05:57:30;24.50;54.30
15543;DHT22;7873;52.230;12.856;2023-09-19T05:59:57;24.50;54.30
15543;DHT22;7873;52.230;12.856;2023-09-19T06:02:25;24.50;54.50
15543;DHT22;7873;52.230;12.856;2023-09-19T06:04:54;24.50;54.50
15543;DHT22;7873;52.230;12.856;2023-09-19T06:07:21;24.50;54.50
15543;DHT22;7873;52.230;12.856;2023-09-19T06:09:48;24.50;54.50
15543;DHT22;7873;52.230;12.856;2023-09-19T06:12:15;24.50;54.50
15543;DHT22;7873;52.230;12.856;2023-09-19T06:14:42;24.50;54.70
15543;DHT22;7873;52.230;12.856;2023-09-19T06:17:09;24.50;54.70
15543;DHT22;7873;52.230;12.856;2023-09-19T06:19:37;24.50;54.70
15543;DHT22;7873;52.230;12.856;2023-09-19T06:22:04;24.50;55.40
15543;DHT22;7873;52.230;12.856;2023-09-19T06:24:30;24.40;54.80
15543;DHT22;7873;52.230;12.856;2023-09-19T06:26:57;24.50;54.70
15543;DHT22;7873;52.230;12.856;2023-09-19T06:29:26;24.50;54.60
15543;DHT22;7873;52.230;12.856;2023-09-19T06:31:53;24.40;54.80
15543;DHT22;7873;52.230;12.856;2023-09-19T06:34:20;24.40;54.80
15543;DHT22;7873;52.230;12.856;2023-09-19T06:36:49;24.40;54.70
15543;DHT22;7873;52.230;12.856;2023-09-19T06:39:18;24.40;54.80
15543;DHT22;7873;52.230;12.856;2023-09-19T06:41:45;24.40;54.70
15543;DHT22;7873;52.230;12.856;2023-09-19T06:44:13;24.40;54.60
15543;DHT22;7873;52.230;12.856;2023-09-19T06:46:40;24.40;54.50
15543;DHT22;7873;52.230;12.856;2023-09-19T06:49:09;24.40;54.50
15543;DHT22;7873;52.230;12.856;2023-09-19T06:51:36;24.40;54.50
15543;DHT22;7873;52.230;12.856;2023-09-19T06:54:04;24.40;54.50
15543;DHT22;7873;52.230;12.856;2023-09-19T06:56:31;24.40;54.50
15543;DHT22;7873;52.230;12.856;2023-09-19T06:58:58;24.40;54.50
15543;DHT22;7873;52.230;12.856;2023-09-19T07:01:25;24.30;54.40
15543;DHT22;7873;52.230;12.856;2023-09-19T07:03:51;24.30;53.90
15543;DHT22;7873;52.230;12.856;2023-09-19T07:06:18;24.30;53.90
15543;DHT22;7873;52.230;12.856;2023-09-19T07:08:45;24.30;53.80
15543;DHT22;7873;52.230;12.856;2023-09-19T07:11:13;24.30;53.80
15543;DHT22;7873;52.230;12.856;2023-09-19T07:13:40;24.30;53.80
15543;DHT22;7873;52.230;12.856;2023-09-19T07:16:07;24.30;53.80
15543;DHT22;7873;52.230;12.856;2023-09-19T07:18:35;24.30;53.70
15543;DHT22;7873;52.230;12.856;2023-09-19T07:21:02;24.30;53.70
15543;DHT22;7873;52.230;12.856;2023-09-19T07:23:30;24.30;53.70
15543;DHT22;7873;52.230;12.856;2023-09-19T07:26:00;24.30;53.70
15543;DHT22;7873;52.230;12.856;2023-09-19T07:28:28;24.30;53.50
15543;DHT22;7873;52.230;12.856;2023-09-19T07:30:55;24.30;53.50
15543;DHT22;7873;52.230;12.856;2023-09-19T07:33:21;24.30;53.40
15543;DHT22;7873;52.230;12.856;2023-09-19T07:35:50;24.30;53.40
15543;DHT22;7873;52.230;12.856;2023-09-19T07:38:17;24.30;53.40
15543;DHT22;7873;52.230;12.856;2023-09-19T07:40:44;24.30;53.40
15543;DHT22;7873;52.230;12.856;2023-09-19T07:43:10;24.30;53.30
15543;DHT22;7873;52.230;12.856;2023-09-19T07:45:38;24.30;53.30
15543;DHT22;7873;52.230;12.856;2023-09-19T07:48:05;24.30;53.50
15543;DHT22;7873;52.230;12.856;2023-09-19T07:50:39;24.30;53.20
15543;DHT22;7873;52.230;12.856;2023-09-19T07:53:08;24.30;53.20
15543;DHT22;7873;52.230;12.856;2023-09-19T07:55:35;24.30;53.70
15543;DHT22;7873;52.230;12.856;2023-09-19T07:58:03;24.30;53.30
15543;DHT22;7873;52.230;12.856;2023-09-19T08:00:31;24.20;53.10
15543;DHT22;7873;52.230;12.856;2023-09-19T08:03:01;24.30;53.10
15543;DHT22;7873;52.230;12.856;2023-09-19T08:05:29;24.30;53.10
15543;DHT22;7873;52.230;12.856;2023-09-19T08:07:55;24.20;53.00
15543;DHT22;7873;52.230;12.856;2023-09-19T08:10:24;24.20;52.80
15543;DHT22;7873;52.230;12.856;2023-09-19T08:12:53;24.20;52.70
15543;DHT22;7873;52.230;12.856;2023-09-19T08:15:23;24.20;52.70
15543;DHT22;7873;52.230;12.856;2023-09-19T08:17:50;24.20;52.60
15543;DHT22;7873;52.230;12.856;2023-09-19T08:20:18;24.20;52.40
15543;DHT22;7873;52.230;12.856;2023-09-19T08:22:46;24.20;52.40
15543;DHT22;7873;52.230;12.856;2023-09-19T08:25:14;24.20;52.50
15543;DHT22;7873;52.230;12.856;2023-09-19T08:27:43;24.20;52.60
15543;DHT22;7873;52.230;12.856;2023-09-19T08:30:13;24.20;52.40
15543;DHT22;7873;52.230;12.856;2023-09-19T08:32:39;24.20;52.40
15543;DHT22;7873;52.230;12.856;2023-09-19T08:35:07;24.20;52.40
15543;DHT22;7873;52.230;12.856;2023-09-19T08:37:36;24.20;52.40
15543;DHT22;7873;52.230;12.856;2023-09-19T08:40:03;24.20;52.30
15543;DHT22;7873;52.230;12.856;2023-09-19T08:42:46;24.20;52.30
15543;DHT22;7873;52.230;12.856;2023-09-19T08:45:13;24.20;52.40
15543;DHT22;7873;52.230;12.856;2023-09-19T08:47:46;24.20;52.40
15543;DHT22;7873;52.230;12.856;2023-09-19T08:50:19;24.20;52.40
15543;DHT22;7873;52.230;12.856;2023-09-19T08:52:51;24.20;52.60
15543;DHT22;7873;52.230;12.856;2023-09-19T08:55:18;24.20;52.30
15543;DHT22;7873;52.230;12.856;2023-09-19T08:57:48;24.20;52.30
15543;DHT22;7873;52.230;12.856;2023-09-19T09:00:16;24.20;52.10
15543;DHT22;7873;52.230;12.856;2023-09-19T09:02:45;24.10;52.10
15543;DHT22;7873;52.230;12.856;2023-09-19T09:05:13;24.10;52.00
15543;DHT22;7873;52.230;12.856;2023-09-19T09:07:41;24.10;51.80
15543;DHT22;7873;52.230;12.856;2023-09-19T09:10:11;24.10;51.80
15543;DHT22;7873;52.230;12.856;2023-09-19T09:12:38;24.10;51.70
15543;DHT22;7873;52.230;12.856;2023-09-19T09:15:06;24.10;51.80
15543;DHT22;7873;52.230;12.856;2023-09-19T09:17:34;24.10;51.50
15543;DHT22;7873;52.230;12.856;2023-09-19T09:20:01;24.10;52.50
15543;DHT22;7873;52.230;12.856;2023-09-19T09:22:30;24.10;51.60
15543;DHT22;7873;52.230;12.856;2023-09-19T09:24:57;24.20;50.90
15543;DHT22;7873;52.230;12.856;2023-09-19T09:27:31;24.20;51.80
15543;DHT22;7873;52.230;12.856;2023-09-19T09:29:58;24.10;51.40
15543;DHT22;7873;52.230;12.856;2023-09-19T09:32:25;24.10;51.60
15543;DHT22;7873;52.230;12.856;2023-09-19T09:34:54;24.10;51.80
15543;DHT22;7873;52.230;12.856;2023-09-19T09:37:22;24.10;51.50
15543;DHT22;7873;52.230;12.856;2023-09-19T09:39:50;24.10;51.80
15543;DHT22;7873;52.230;12.856;2023-09-19T09:45:15;24.10;52.10
15543;DHT22;7873;52.230;12.856;2023-09-19T09:47:43;24.00;52.30
15543;DHT22;7873;52.230;12.856;2023-09-19T09:50:27;24.10;51.50
15543;DHT22;7873;52.230;12.856;2023-09-19T09:53:02;24.00;51.10
15543;DHT22;7873;52.230;12.856;2023-09-19T09:58:28;24.00;51.70
15543;DHT22;7873;52.230;12.856;2023-09-19T10:00:57;24.00;51.10
15543;DHT22;7873;52.230;12.856;2023-09-19T10:03:35;24.00;51.50
15543;DHT22;7873;52.230;12.856;2023-09-19T10:06:06;24.10;51.30
15543;DHT22;7873;52.230;12.856;2023-09-19T10:09:00;24.00;52.10
15543;DHT22;7873;52.230;12.856;2023-09-19T10:11:42;24.00;52.30
15543;DHT22;7873;52.230;12.856;2023-09-19T10:14:12;24.00;52.20
15543;DHT22;7873;52.230;12.856;2023-09-19T10:16:44;24.00;52.10
15543;DHT22;7873;52.230;12.856;2023-09-19T10:19:15;24.00;51.00
15543;DHT22;7873;52.230;12.856;2023-09-19T10:21:44;24.00;51.30
15543;DHT22;7873;52.230;12.856;2023-09-19T10:24:12;24.00;52.10
15543;DHT22;7873;52.230;12.856;2023-09-19T10:26:41;24.00;51.50
15543;DHT22;7873;52.230;12.856;2023-09-19T10:29:08;24.00;52.50
15543;DHT22;7873;52.230;12.856;2023-09-19T10:31:37;24.00;51.60
15543;DHT22;7873;52.230;12.856;2023-09-19T10:34:06;24.00;51.80
15543;DHT22;7873;52.230;12.856;2023-09-19T10:36:35;24.00;52.30
15543;DHT22;7873;52.230;12.856;2023-09-19T10:39:04;24.00;51.50
15543;DHT22;7873;52.230;12.856;2023-09-19T10:41:34;24.00;52.30
15543;DHT22;7873;52.230;12.856;2023-09-19T10:44:03;23.90;52.30
15543;DHT22;7873;52.230;12.856;2023-09-19T10:46:31;23.90;52.60
15543;DHT22;7873;52.230;12.856;2023-09-19T10:49:00;23.90;51.80
15543;DHT22;7873;52.230;12.856;2023-09-19T10:51:28;23.90;51.40
15543;DHT22;7873;52.230;12.856;2023-09-19T10:53:59;24.00;52.30
15543;DHT22;7873;52.230;12.856;2023-09-19T10:56:32;24.00;51.90
15543;DHT22;7873;52.230;12.856;2023-09-19T10:59:05;23.90;51.90
15543;DHT22;7873;52.230;12.856;2023-09-19T11:01:43;23.90;52.10
15543;DHT22;7873;52.230;12.856;2023-09-19T11:04:23;23.90;52.20
15543;DHT22;7873;52.230;12.856;2023-09-19T11:07:02;23.90;52.00
15543;DHT22;7873;52.230;12.856;2023-09-19T11:09:42;23.90;52.10
15543;DHT22;7873;52.230;12.856;2023-09-19T11:12:11;23.90;51.80
15543;DHT22;7873;52.230;12.856;2023-09-19T11:14:39;23.90;52.30
15543;DHT22;7873;52.230;12.856;2023-09-19T11:17:30;23.90;52.00
15543;DHT22;7873;52.230;12.856;2023-09-19T11:23:20;23.90;51.80
15543;DHT22;7873;52.230;12.856;2023-09-19T11:25:53;23.90;51.10
15543;DHT22;7873;52.230;12.856;2023-09-19T11:28:29;24.00;51.50
15543;DHT22;7873;52.230;12.856;2023-09-19T11:34:40;24.00;51.80
15543;DHT22;7873;52.230;12.856;2023-09-19T11:40:37;23.90;51.50
15543;DHT22;7873;52.230;12.856;2023-09-19T11:46:05;23.90;51.80
15543;DHT22;7873;52.230;12.856;2023-09-19T11:48:32;23.90;51.50
15543;DHT22;7873;52.230;12.856;2023-09-19T11:51:09;23.90;51.40
15543;DHT22;7873;52.230;12.856;2023-09-19T11:53:44;23.90;50.80
15543;DHT22;7873;52.230;12.856;2023-09-19T11:56:14;23.90;51.00
15543;DHT22;7873;52.230;12.856;2023-09-19T11:58:43;23.90;51.10
15543;DHT22;7873;52.230;12.856;2023-09-19T12:01:12;23.90;51.40
15543;DHT22;7873;52.230;12.856;2023-09-19T12:03:41;23.90;50.80
15543;DHT22;7873;52.230;12.856;2023-09-19T12:06:13;23.90;50.40
15543;DHT22;7873;52.230;12.856;2023-09-19T12:08:41;24.00;50.80
15543;DHT22;7873;52.230;12.856;2023-09-19T12:11:12;24.00;50.80
15543;DHT22;7873;52.230;12.856;2023-09-19T12:13:44;24.00;50.70
15543;DHT22;7873;52.230;12.856;2023-09-19T12:16:12;24.00;51.10
15543;DHT22;7873;52.230;12.856;2023-09-19T12:18:41;24.00;50.60
15543;DHT22;7873;52.230;12.856;2023-09-19T12:21:21;24.00;50.70
15543;DHT22;7873;52.230;12.856;2023-09-19T12:23:58;24.00;50.40
15543;DHT22;7873;52.230;12.856;2023-09-19T12:26:40;24.00;50.70
15543;DHT22;7873;52.230;12.856;2023-09-19T12:29:12;24.00;50.40
15543;DHT22;7873;52.230;12.856;2023-09-19T12:31:47;24.00;50.60
15543;DHT22;7873;52.230;12.856;2023-09-19T12:34:16;24.00;50.00
15543;DHT22;7873;52.230;12.856;2023-09-19T12:36:45;24.00;50.50
15543;DHT22;7873;52.230;12.856;2023-09-19T12:39:21;23.90;50.30
15543;DHT22;7873;52.230;12.856;2023-09-19T12:41:51;24.00;50.30
15543;DHT22;7873;52.230;12.856;2023-09-19T12:44:18;24.00;50.50
15543;DHT22;7873;52.230;12.856;2023-09-19T12:46:45;24.00;50.00
15543;DHT22;7873;52.230;12.856;2023-09-19T12:49:15;24.00;50.10
15543;DHT22;7873;52.230;12.856;2023-09-19T12:51:43;24.00;50.50
15543;DHT22;7873;52.230;12.856;2023-09-19T12:54:10;24.00;50.10
15543;DHT22;7873;52.230;12.856;2023-09-19T12:56:40;23.90;50.40
15543;DHT22;7873;52.230;12.856;2023-09-19T12:59:11;24.00;50.20
15543;DHT22;7873;52.230;12.856;2023-09-19T13:01:39;24.00;50.40
15543;DHT22;7873;52.230;12.856;2023-09-19T13:04:10;23.90;50.10
15543;DHT22;7873;52.230;12.856;2023-09-19T13:06:40;24.00;50.50
15543;DHT22;7873;52.230;12.856;2023-09-19T13:09:08;24.00;50.20
15543;DHT22;7873;52.230;12.856;2023-09-19T13:11:36;24.00;50.40
15543;DHT22;7873;52.230;12.856;2023-09-19T13:14:19;24.00;50.30
15543;DHT22;7873;52.230;12.856;2023-09-19T13:16:58;24.00;50.40
15543;DHT22;7873;52.230;12.856;2023-09-19T13:19:41;24.00;50.20
15543;DHT22;7873;52.230;12.856;2023-09-19T13:25:04;24.00;49.90
15543;DHT22;7873;52.230;12.856;2023-09-19T13:27:32;24.00;50.00
15543;DHT22;7873;52.230;12.856;2023-09-19T13:30:00;23.90;50.10
15543;DHT22;7873;52.230;12.856;2023-09-19T13:32:26;24.00;50.10
15543;DHT22;7873;52.230;12.856;2023-09-19T13:34:53;23.90;50.00
15543;DHT22;7873;52.230;12.856;2023-09-19T13:37:20;24.00;50.00
15543;DHT22;7873;52.230;12.856;2023-09-19T13:39:47;24.00;49.90
15543;DHT22;7873;52.230;12.856;2023-09-19T13:42:14;24.00;49.70
15543;DHT22;7873;52.230;12.856;2023-09-19T13:44:41;24.10;49.70
15543;DHT22;7873;52.230;12.856;2023-09-19T13:47:10;24.10;49.60
15543;DHT22;7873;52.230;12.856;2023-09-19T13:49:39;24.10;49.50
15543;DHT22;7873;52.230;12.856;2023-09-19T13:52:05;24.10;49.50
15543;DHT22;7873;52.230;12.856;2023-09-19T13:54:32;24.10;49.50
15543;DHT22;7873;52.230;12.856;2023-09-19T13:56:59;24.10;49.50
15543;DHT22;7873;52.230;12.856;2023-09-19T13:59:27;24.10;49.60
15543;DHT22;7873;52.230;12.856;2023-09-19T14:01:54;24.10;49.60
15543;DHT22;7873;52.230;12.856;2023-09-19T14:04:23;24.10;49.70
15543;DHT22;7873;52.230;12.856;2023-09-19T14:06:50;24.10;49.60
15543;DHT22;7873;52.230;12.856;2023-09-19T14:09:16;24.10;49.60
15543;DHT22;7873;52.230;12.856;2023-09-19T14:11:44;24.10;49.00
15543;DHT22;7873;52.230;12.856;2023-09-19T14:14:12;24.00;46.30
15543;DHT22;7873;52.230;12.856;2023-09-19T14:16:39;24.00;47.00
15543;DHT22;7873;52.230;12.856;2023-09-19T14:19:07;24.00;46.90
15543;DHT22;7873;52.230;12.856;2023-09-19T14:21:35;23.90;46.30
15543;DHT22;7873;52.230;12.856;2023-09-19T14:24:04;23.90;46.70
15543;DHT22;7873;52.230;12.856;2023-09-19T14:26:34;23.90;46.30
15543;DHT22;7873;52.230;12.856;2023-09-19T14:29:01;23.90;45.60
15543;DHT22;7873;52.230;12.856;2023-09-19T14:31:28;23.90;45.00
15543;DHT22;7873;52.230;12.856;2023-09-19T14:33:55;23.90;45.30
15543;DHT22;7873;52.230;12.856;2023-09-19T14:36:22;23.90;45.30
15543;DHT22;7873;52.230;12.856;2023-09-19T14:38:53;23.90;45.20
15543;DHT22;7873;52.230;12.856;2023-09-19T14:41:21;23.90;45.30
15543;DHT22;7873;52.230;12.856;2023-09-19T14:43:48;23.90;44.90
15543;DHT22;7873;52.230;12.856;2023-09-19T14:46:15;23.90;44.70
15543;DHT22;7873;52.230;12.856;2023-09-19T14:48:44;23.90;45.10
15543;DHT22;7873;52.230;12.856;2023-09-19T14:51:12;23.90;45.30
15543;DHT22;7873;52.230;12.856;2023-09-19T14:53:39;23.80;46.00
15543;DHT22;7873;52.230;12.856;2023-09-19T14:56:08;23.80;44.50
15543;DHT22;7873;52.230;12.856;2023-09-19T14:58:36;23.80;44.20
15543;DHT22;7873;52.230;12.856;2023-09-19T15:01:04;23.90;44.00
15543;DHT22;7873;52.230;12.856;2023-09-19T15:03:32;23.80;44.20
15543;DHT22;7873;52.230;12.856;2023-09-19T15:05:59;23.80;44.10
15543;DHT22;7873;52.230;12.856;2023-09-19T15:08:26;23.90;44.90
15543;DHT22;7873;52.230;12.856;2023-09-19T15:10:53;23.90;44.70
15543;DHT22;7873;52.230;12.856;2023-09-19T15:13:22;23.90;44.70
15543;DHT22;7873;52.230;12.856;2023-09-19T15:15:57;23.80;44.60
15543;DHT22;7873;52.230;12.856;2023-09-19T15:18:25;23.80;44.10
15543;DHT22;7873;52.230;12.856;2023-09-19T15:20:51;23.80;44.10
15543;DHT22;7873;52.230;12.856;2023-09-19T15:23:18;23.80;43.80
15543;DHT22;7873;52.230;12.856;2023-09-19T15:25:47;23.80;44.40
15543;DHT22;7873;52.230;12.856;2023-09-19T15:28:14;23.90;43.30
15543;DHT22;7873;52.230;12.856;2023-09-19T15:30:42;23.80;43.10
15543;DHT22;7873;52.230;12.856;2023-09-19T15:33:08;23.80;43.10
15543;DHT22;7873;52.230;12.856;2023-09-19T15:35:36;23.80;43.00
15543;DHT22;7873;52.230;12.856;2023-09-19T15:38:03;23.70;42.60
15543;DHT22;7873;52.230;12.856;2023-09-19T15:40:30;23.80;42.80
15543;DHT22;7873;52.230;12.856;2023-09-19T15:42:57;23.80;43.10
15543;DHT22;7873;52.230;12.856;2023-09-19T15:45:23;23.80;42.80
15543;DHT22;7873;52.230;12.856;2023-09-19T15:47:52;23.90;43.50
15543;DHT22;7873;52.230;12.856;2023-09-19T15:50:19;23.90;43.10
15543;DHT22;7873;52.230;12.856;2023-09-19T15:52:48;23.90;43.60
15543;DHT22;7873;52.230;12.856;2023-09-19T15:55:19;23.80;43.40
15543;DHT22;7873;52.230;12.856;2023-09-19T15:57:46;23.80;43.10
15543;DHT22;7873;52.230;12.856;2023-09-19T16:00:13;23.80;43.30
15543;DHT22;7873;52.230;12.856;2023-09-19T16:02:42;23.70;42.60